Fire Weather Observation
Issued by NWS Grand Junction, CO

Home | Current Version | Previous Version | Text Only | Print | Product List | Glossary Off
Versions: 1 2 3 4 5 6 7 8 9 10 11 12 13 14 15 16 17 18 19 20 21 22 23 24 25 26 27 28 29 30 31 32 33 34

484
SHUS65 KGJT 152025
FWOGJT

DAILY FIRE WEATHER OBSERVATION
NATIONAL WEATHER SERVICE GRAND JUNCTION CO
212 PM MDT FRI MAY 15 2015

STATE OF THE WEATHER (W)               6
DRY BULB TEMPERATURE                   51   DEGREES FAHRENHEIT
RELATIVE HUMIDITY (RH)                 63   PERCENT
LIGHTNING ACTIVITY LEVEL
  (LAL - MIDNIGHT TO 2 PM)             4
WIND DIRECTION                         135  DEGREES (C IF CALM)
WIND SPEED                             14   MPH
MAX TEMP (2 PM - 2 PM)                 62   DEGREES FAHRENHEIT
MIN TEMP (2 PM - 2 PM)                 47   DEGREES FAHRENHEIT
MAX RH (2 PM - 2 PM)                   93   PERCENT
MIN RH (2 PM - 2 PM)                   50   PERCENT
PCPN DURATION                          3.0  HOURS
PCPN AMT (2 PM - 2 PM)                 0.05 INCHES
LAL (2 PM - 2 PM)                      5

$$

METAR KGJT 151953Z 14012G19KT 10SM -RA OVC070 11/04 A2981 RMK
      AO2 LTG DSNT S RAB01 SLP064 VCSH P0001 T01060039



USA.gov is the U.S. government's official web portal to all federal, state and local government web resources and services.